AirNav   Pilot Hours Calculator
 
 434 users online  

77CL Baker & Hall Airport
Dunlap, California, USA

GOING TO DUNLAP?


FAA INFORMATION EFFECTIVE 03 NOVEMBER 2022

Location

FAA Identifier: 77CL
Lat/Long: 36-43-03.8120N 119-08-13.4080W
36-43.063533N 119-08.223467W
36.7177256,-119.1370578
(estimated)
Elevation: 2150 ft. / 655 m (estimated)
Variation: 15E (1985)
From city: 2 miles SW of DUNLAP, CA
Time zone: UTC -8 (UTC -7 during Daylight Saving Time)
Zip code: 93675

Airport Operations

Airport use: Private use. Permission required prior to landing
Activation date: 02/1970
Control tower: no
ARTCC: OAKLAND CENTER
FSS: RANCHO MURIETA FLIGHT SERVICE STATION
Attendance: UNATNDD
Wind indicator: yes
Segmented circle: no

Airport Communications

WX AWOS-3PT at O32 (15 nm W): 120.175 (559-637-9453)

Nearby radio navigation aids

VOR radial/distance  VOR name  Freq  Var
FRAr120/32.0FRIANT VORTAC115.6017E

Airport Services

Airframe service: NONE
Powerplant service: NONE

Runway Information

Runway E/W

Dimensions: 3400 x 100 ft. / 1036 x 30 m
Surface: dirt
RUNWAY E  RUNWAY W
Traffic pattern: leftleft

Airport Ownership and Management from official FAA records

Ownership: Privately-owned
Owner: RICK & SUSAN HALL
PO BOX 405
DUNLAP, CA 93621
Phone (559) 338-2449
Manager: RICK & SUSAN HALL
PO BOX 405
DUNLAP, CA 93621
Phone (559) 338-2449
ADDNL PHONE: 559-288-7291

Additional Remarks

A52-E PLINE 600 FT E.
PLINES (NOT VISIBLE) 1000 FT E OF RWY APCH.
FOR CD CTC OAKLAND ARTCC AT 510-745-3380.
ARPT FOR EMERG USE ONLY.

Instrument Procedures

There are no published instrument procedures at 77CL.

Some nearby airports with instrument procedures:

O32 - Reedley Municipal Airport (15 nm W)
KVIS - Visalia Municipal Airport (27 nm SW)
KFAT - Fresno Yosemite International Airport (28 nm W)
KFCH - Fresno Chandler Executive Airport (33 nm W)
KHJO - Hanford Municipal Airport (34 nm SW)
 
Loc | Ops | Rwys | IFR | FBO | Links
Com | Nav | Svcs | Stats | Notes
Area around 77CL (Baker & Hall Airport)
 
Road maps at: MapQuest Bing Google
 
Aerial photo
No photo
 
Sectional chart

 
Airport distance calculator
Flying to Baker & Hall Airport? Find the distance to fly.

From to 77CL

Sunrise and sunset
Times for 28-Nov-2022
 Local
(UTC-8)
 Zulu
(UTC)
Morning civil twilight06:2014:20
Sunrise06:4914:49
Sunset16:4000:40
Evening civil twilight17:0901:09

Current date and time
Zulu (UTC)  28-Nov-2022 10:57:56
Local (UTC-8)  28-Nov-2022 02:57:56
 
METAR
KO32 
15nm W 
281055Z AUTO 10004KT 9SM CLR 03/02 A2996 RMK AO2 T00340024 $
KVIS 
27nm SW 
280956Z AUTO 11003KT 4SM BR CLR 04/03 A2999 RMK AO2 SLP166 T00440028
KFAT 
28nm W 
281053Z 00000KT 6SM HZ SCT200 06/02 A2997 RMK AO2 SLP148 T00610022 $
TAF
KVIS 
27nm SW 
280525Z 2806/2906 VRB04KT 5SM HZ SKC FM281200 VRB05KT 4SM HZ BR SCT250
KFAT 
28nm W 
280525Z 2806/2906 VRB02KT 5SM HZ SCT200 FM281200 36004KT 4SM HZ BR SCT250 FM282000 30008KT 6SM HZ FEW250
NOTAMs
Click for the latest NOTAMs
NOTAMs are issued by the DoD/FAA and will open in a separate window not controlled by AirNav.

 

 
 

Would you like to see your business listed on this page?

 If your business provides an interesting product or service to pilots, flight crews, aircraft, or users of the Baker & Hall Airport, you should consider listing it here.  To start the listing process, click on the button below
 
Add a business
 

Other Pages about Baker & Hall Airport

Update a link
 
Copyright © AirNav, LLC. All rights reserved. Privacy Policy  Contact